Pijnacker, Netherlands
Current Conditions -  °F | °C
As of 2:25 PM on Saturday 20 Dec 2014 (Local Time) from EHRD Reporting Station
Broken Clouds Broken Clouds  
Wind Chill: 41°   Ceiling: 3900
Heat Index: 48°   Visibility: 6mi
Dew Point: 39°   Wind: 23mph
Humidity: 71%   Direction: 270°W
Pressure: 30.09"   Gusts: 36mph
Location:  52.02°N, 4.43°E
Report Text: EHRD 201325Z AUTO 27020G31KT 250V310 9999 FEW027 BKN039 BKN04409/04 Q1019 NOSIG
Loading
Personal Weather Stations






























Interactive Weather Map New forecast layout! Learn more

10-Day Weather Forecast

Advertisements
Track Severe Weather on mobile